sensor_id;sensor_type;location;lat;lon;timestamp;pressure;altitude;pressure_sealevel;temperature;humidity
15884;BME280;8040;50.254;10.960;2023-03-18T00:01:32;97751.44;;;9.06;59.66
15884;BME280;8040;50.254;10.960;2023-03-18T00:03:57;97755.00;;;9.01;59.11
15884;BME280;8040;50.254;10.960;2023-03-18T00:06:22;97752.44;;;8.96;59.32
15884;BME280;8040;50.254;10.960;2023-03-18T00:08:48;97751.13;;;8.94;58.99
15884;BME280;8040;50.254;10.960;2023-03-18T00:11:14;97743.81;;;8.94;59.50
15884;BME280;8040;50.254;10.960;2023-03-18T00:13:40;97756.03;;;8.92;59.61
15884;BME280;8040;50.254;10.960;2023-03-18T00:16:06;97762.03;;;8.89;59.37
15884;BME280;8040;50.254;10.960;2023-03-18T00:18:33;97753.25;;;8.83;59.57
15884;BME280;8040;50.254;10.960;2023-03-18T00:20:59;97754.03;;;8.84;59.72
15884;BME280;8040;50.254;10.960;2023-03-18T00:23:25;97753.34;;;8.78;59.88
15884;BME280;8040;50.254;10.960;2023-03-18T00:25:53;97759.63;;;8.74;59.70
15884;BME280;8040;50.254;10.960;2023-03-18T00:28:18;97762.84;;;8.76;59.60
15884;BME280;8040;50.254;10.960;2023-03-18T00:30:44;97764.94;;;8.79;60.06
15884;BME280;8040;50.254;10.960;2023-03-18T00:33:10;97759.22;;;8.80;60.44
15884;BME280;8040;50.254;10.960;2023-03-18T00:35:36;97761.44;;;8.78;60.29
15884;BME280;8040;50.254;10.960;2023-03-18T00:38:02;97761.25;;;8.75;60.34
15884;BME280;8040;50.254;10.960;2023-03-18T00:40:28;97763.63;;;8.76;60.62
15884;BME280;8040;50.254;10.960;2023-03-18T00:42:55;97770.22;;;8.70;60.24
15884;BME280;8040;50.254;10.960;2023-03-18T00:45:31;97768.03;;;8.72;60.19
15884;BME280;8040;50.254;10.960;2023-03-18T00:47:57;97769.34;;;8.75;60.43
15884;BME280;8040;50.254;10.960;2023-03-18T00:50:22;97777.25;;;8.71;60.60
15884;BME280;8040;50.254;10.960;2023-03-18T00:52:47;97779.66;;;8.73;60.76
15884;BME280;8040;50.254;10.960;2023-03-18T00:55:13;97782.44;;;8.68;60.27
15884;BME280;8040;50.254;10.960;2023-03-18T00:57:38;97784.28;;;8.72;60.17
15884;BME280;8040;50.254;10.960;2023-03-18T01:00:04;97788.28;;;8.75;60.67
15884;BME280;8040;50.254;10.960;2023-03-18T01:02:31;97785.06;;;8.73;60.04
15884;BME280;8040;50.254;10.960;2023-03-18T01:04:56;97779.84;;;8.76;60.38
15884;BME280;8040;50.254;10.960;2023-03-18T01:07:22;97782.06;;;8.74;60.40
15884;BME280;8040;50.254;10.960;2023-03-18T01:09:47;97782.25;;;8.78;60.72
15884;BME280;8040;50.254;10.960;2023-03-18T01:12:13;97785.78;;;8.78;60.62
15884;BME280;8040;50.254;10.960;2023-03-18T01:14:39;97774.06;;;8.83;60.84
15884;BME280;8040;50.254;10.960;2023-03-18T01:17:05;97772.94;;;8.84;60.34
15884;BME280;8040;50.254;10.960;2023-03-18T01:19:30;97781.06;;;8.84;60.07
15884;BME280;8040;50.254;10.960;2023-03-18T01:21:56;97783.47;;;8.85;60.25
15884;BME280;8040;50.254;10.960;2023-03-18T01:24:21;97784.25;;;8.86;60.28
15884;BME280;8040;50.254;10.960;2023-03-18T01:26:47;97783.19;;;8.87;60.53
15884;BME280;8040;50.254;10.960;2023-03-18T01:29:12;97788.47;;;8.92;60.03
15884;BME280;8040;50.254;10.960;2023-03-18T01:31:37;97785.28;;;8.90;60.69
15884;BME280;8040;50.254;10.960;2023-03-18T01:34:03;97792.81;;;8.93;60.91
15884;BME280;8040;50.254;10.960;2023-03-18T01:36:28;97795.31;;;8.89;60.47
15884;BME280;8040;50.254;10.960;2023-03-18T01:38:54;97792.28;;;8.91;60.39
15884;BME280;8040;50.254;10.960;2023-03-18T01:41:20;97793.50;;;8.98;60.74
15884;BME280;8040;50.254;10.960;2023-03-18T01:43:45;97781.56;;;8.99;60.44
15884;BME280;8040;50.254;10.960;2023-03-18T01:48:55;97787.72;;;9.05;60.11
15884;BME280;8040;50.254;10.960;2023-03-18T01:51:20;97789.59;;;9.04;60.35
15884;BME280;8040;50.254;10.960;2023-03-18T01:53:47;97797.50;;;9.01;60.49
15884;BME280;8040;50.254;10.960;2023-03-18T01:56:14;97798.72;;;9.08;60.49
15884;BME280;8040;50.254;10.960;2023-03-18T01:58:44;97803.31;;;9.08;60.37
15884;BME280;8040;50.254;10.960;2023-03-18T02:01:16;97797.09;;;9.07;60.28
15884;BME280;8040;50.254;10.960;2023-03-18T02:03:44;97799.72;;;9.12;60.25
15884;BME280;8040;50.254;10.960;2023-03-18T02:06:10;97804.34;;;9.12;60.12
15884;BME280;8040;50.254;10.960;2023-03-18T02:08:37;97803.72;;;9.15;59.72
15884;BME280;8040;50.254;10.960;2023-03-18T02:11:03;97804.34;;;9.12;60.39
15884;BME280;8040;50.254;10.960;2023-03-18T02:13:29;97806.03;;;9.08;60.39
15884;BME280;8040;50.254;10.960;2023-03-18T02:16:00;97802.41;;;9.12;61.10
15884;BME280;8040;50.254;10.960;2023-03-18T02:18:29;97808.94;;;9.11;60.51
15884;BME280;8040;50.254;10.960;2023-03-18T02:21:09;97815.16;;;9.12;60.50
15884;BME280;8040;50.254;10.960;2023-03-18T02:29:08;97823.97;;;9.17;60.89
15884;BME280;8040;50.254;10.960;2023-03-18T02:31:36;97826.09;;;9.20;61.14
15884;BME280;8040;50.254;10.960;2023-03-18T02:34:02;97817.44;;;9.18;60.87
15884;BME280;8040;50.254;10.960;2023-03-18T02:36:29;97832.91;;;9.18;60.45
15884;BME280;8040;50.254;10.960;2023-03-18T02:38:56;97836.91;;;9.20;60.06
15884;BME280;8040;50.254;10.960;2023-03-18T02:41:23;97829.56;;;9.21;60.37
15884;BME280;8040;50.254;10.960;2023-03-18T02:43:49;97835.19;;;9.24;60.19
15884;BME280;8040;50.254;10.960;2023-03-18T02:49:00;97841.81;;;9.32;60.16
15884;BME280;8040;50.254;10.960;2023-03-18T02:51:26;97834.50;;;9.32;60.21
15884;BME280;8040;50.254;10.960;2023-03-18T02:53:52;97833.97;;;9.30;59.90
15884;BME280;8040;50.254;10.960;2023-03-18T02:56:19;97841.19;;;9.35;60.39
15884;BME280;8040;50.254;10.960;2023-03-18T02:58:44;97845.00;;;9.34;59.96
15884;BME280;8040;50.254;10.960;2023-03-18T03:01:10;97846.22;;;9.41;60.43
15884;BME280;8040;50.254;10.960;2023-03-18T03:03:36;97850.81;;;9.41;60.44
15884;BME280;8040;50.254;10.960;2023-03-18T03:06:02;97839.59;;;9.34;60.93
15884;BME280;8040;50.254;10.960;2023-03-18T03:08:27;97855.66;;;9.44;60.44
15884;BME280;8040;50.254;10.960;2023-03-18T03:10:53;97851.25;;;9.48;60.45
15884;BME280;8040;50.254;10.960;2023-03-18T03:13:19;97849.84;;;9.50;60.40
15884;BME280;8040;50.254;10.960;2023-03-18T03:15:45;97856.75;;;9.56;60.42
15884;BME280;8040;50.254;10.960;2023-03-18T03:18:11;97863.44;;;9.59;59.46
15884;BME280;8040;50.254;10.960;2023-03-18T03:20:36;97856.75;;;9.56;59.90
15884;BME280;8040;50.254;10.960;2023-03-18T03:23:06;97852.13;;;9.57;59.69
15884;BME280;8040;50.254;10.960;2023-03-18T03:25:32;97864.53;;;9.58;59.75
15884;BME280;8040;50.254;10.960;2023-03-18T03:27:58;97864.06;;;9.56;59.74
15884;BME280;8040;50.254;10.960;2023-03-18T03:30:23;97862.38;;;9.60;59.56
15884;BME280;8040;50.254;10.960;2023-03-18T03:32:50;97863.53;;;9.67;59.55
15884;BME280;8040;50.254;10.960;2023-03-18T03:35:16;97868.66;;;9.69;59.26
15884;BME280;8040;50.254;10.960;2023-03-18T03:37:42;97867.06;;;9.68;60.24
15884;BME280;8040;50.254;10.960;2023-03-18T03:40:08;97875.09;;;9.73;59.41
15884;BME280;8040;50.254;10.960;2023-03-18T03:42:34;97871.25;;;9.74;59.55
15884;BME280;8040;50.254;10.960;2023-03-18T03:44:59;97868.66;;;9.69;59.89
15884;BME280;8040;50.254;10.960;2023-03-18T03:47:25;97873.50;;;9.72;59.60
15884;BME280;8040;50.254;10.960;2023-03-18T03:49:50;97877.47;;;9.74;60.18
15884;BME280;8040;50.254;10.960;2023-03-18T03:52:16;97871.66;;;9.67;59.98
15884;BME280;8040;50.254;10.960;2023-03-18T03:54:44;97886.50;;;9.70;60.34
15884;BME280;8040;50.254;10.960;2023-03-18T03:57:09;97884.09;;;9.68;59.57
15884;BME280;8040;50.254;10.960;2023-03-18T03:59:34;97888.09;;;9.71;60.54
15884;BME280;8040;50.254;10.960;2023-03-18T04:02:00;97885.41;;;9.71;60.37
15884;BME280;8040;50.254;10.960;2023-03-18T04:04:26;97886.50;;;9.70;59.46
15884;BME280;8040;50.254;10.960;2023-03-18T04:06:51;97891.53;;;9.76;58.91
15884;BME280;8040;50.254;10.960;2023-03-18T04:09:17;97881.47;;;9.77;59.58
15884;BME280;8040;50.254;10.960;2023-03-18T04:11:42;97884.50;;;9.75;60.06
15884;BME280;8040;50.254;10.960;2023-03-18T04:14:08;97874.56;;;9.71;59.61
15884;BME280;8040;50.254;10.960;2023-03-18T04:16:34;97872.78;;;9.66;59.67
15884;BME280;8040;50.254;10.960;2023-03-18T04:18:59;97873.38;;;9.63;59.87
15884;BME280;8040;50.254;10.960;2023-03-18T04:21:25;97867.59;;;9.56;59.49
15884;BME280;8040;50.254;10.960;2023-03-18T04:23:51;97865.75;;;9.52;59.86
15884;BME280;8040;50.254;10.960;2023-03-18T04:26:17;97869.56;;;9.51;60.31
15884;BME280;8040;50.254;10.960;2023-03-18T04:28:42;97861.88;;;9.44;60.43
15884;BME280;8040;50.254;10.960;2023-03-18T04:31:08;97873.47;;;9.45;60.63
15884;BME280;8040;50.254;10.960;2023-03-18T04:33:33;97871.06;;;9.43;60.98
15884;BME280;8040;50.254;10.960;2023-03-18T04:35:58;97879.91;;;9.35;60.98
15884;BME280;8040;50.254;10.960;2023-03-18T04:38:24;97879.09;;;9.35;61.03
15884;BME280;8040;50.254;10.960;2023-03-18T04:40:49;97886.31;;;9.26;60.86
15884;BME280;8040;50.254;10.960;2023-03-18T04:43:15;97887.72;;;9.23;60.75
15884;BME280;8040;50.254;10.960;2023-03-18T04:45:40;97885.91;;;9.19;60.47
15884;BME280;8040;50.254;10.960;2023-03-18T04:48:06;97879.47;;;9.15;60.54
15884;BME280;8040;50.254;10.960;2023-03-18T04:50:31;97877.38;;;9.12;60.21
15884;BME280;8040;50.254;10.960;2023-03-18T04:52:57;97877.97;;;9.09;60.45
15884;BME280;8040;50.254;10.960;2023-03-18T04:55:22;97880.25;;;9.02;60.63
15884;BME280;8040;50.254;10.960;2023-03-18T04:57:48;97871.44;;;8.96;60.66
15884;BME280;8040;50.254;10.960;2023-03-18T05:00:15;97870.44;;;8.92;60.75
15884;BME280;8040;50.254;10.960;2023-03-18T05:02:41;97871.69;;;8.81;60.69
15884;BME280;8040;50.254;10.960;2023-03-18T05:05:07;97872.00;;;8.80;61.04
15884;BME280;8040;50.254;10.960;2023-03-18T05:07:33;97873.69;;;8.76;61.25
15884;BME280;8040;50.254;10.960;2023-03-18T05:09:58;97879.69;;;8.73;61.09
15884;BME280;8040;50.254;10.960;2023-03-18T05:12:24;97882.25;;;8.64;60.76
15884;BME280;8040;50.254;10.960;2023-03-18T05:14:50;97880.88;;;8.67;61.20
15884;BME280;8040;50.254;10.960;2023-03-18T05:17:15;97876.56;;;8.66;61.34
15884;BME280;8040;50.254;10.960;2023-03-18T05:19:41;97884.97;;;8.64;61.31
15884;BME280;8040;50.254;10.960;2023-03-18T05:22:07;97895.78;;;8.64;61.46
15884;BME280;8040;50.254;10.960;2023-03-18T05:24:32;97887.16;;;8.62;60.97
15884;BME280;8040;50.254;10.960;2023-03-18T05:26:58;97886.38;;;8.62;60.77
15884;BME280;8040;50.254;10.960;2023-03-18T05:29:24;97880.66;;;8.63;60.92
15884;BME280;8040;50.254;10.960;2023-03-18T05:31:49;97879.28;;;8.66;60.64
15884;BME280;8040;50.254;10.960;2023-03-18T05:34:14;97886.50;;;8.70;60.93
15884;BME280;8040;50.254;10.960;2023-03-18T05:36:40;97883.78;;;8.70;60.89
15884;BME280;8040;50.254;10.960;2023-03-18T05:39:05;97889.63;;;8.77;61.11
15884;BME280;8040;50.254;10.960;2023-03-18T05:41:30;97883.84;;;8.84;60.60
15884;BME280;8040;50.254;10.960;2023-03-18T05:43:56;97883.84;;;8.84;60.86
15884;BME280;8040;50.254;10.960;2023-03-18T05:46:21;97886.25;;;8.85;60.70
15884;BME280;8040;50.254;10.960;2023-03-18T05:48:46;97877.72;;;8.92;61.11
15884;BME280;8040;50.254;10.960;2023-03-18T05:51:12;97884.25;;;8.91;60.70
15884;BME280;8040;50.254;10.960;2023-03-18T05:53:38;97879.84;;;8.95;60.67
15884;BME280;8040;50.254;10.960;2023-03-18T05:56:03;97885.25;;;8.95;60.35
15884;BME280;8040;50.254;10.960;2023-03-18T05:58:28;97880.75;;;9.04;59.99
15884;BME280;8040;50.254;10.960;2023-03-18T06:00:56;97876.84;;;9.10;60.13
15884;BME280;8040;50.254;10.960;2023-03-18T06:03:21;97883.19;;;9.19;59.87
15884;BME280;8040;50.254;10.960;2023-03-18T06:05:48;97887.41;;;9.25;60.33
15884;BME280;8040;50.254;10.960;2023-03-18T06:08:14;97895.75;;;9.28;60.22
15884;BME280;8040;50.254;10.960;2023-03-18T06:10:39;97896.44;;;9.34;59.58
15884;BME280;8040;50.254;10.960;2023-03-18T06:13:05;97892.13;;;9.33;59.37
15884;BME280;8040;50.254;10.960;2023-03-18T06:15:32;97888.50;;;9.37;60.03
15884;BME280;8040;50.254;10.960;2023-03-18T06:17:57;97902.25;;;9.41;59.75
15884;BME280;8040;50.254;10.960;2023-03-18T06:20:22;97902.16;;;9.46;59.67
15884;BME280;8040;50.254;10.960;2023-03-18T06:22:48;97902.25;;;9.54;59.73
15884;BME280;8040;50.254;10.960;2023-03-18T06:25:15;97899.47;;;9.59;59.81
15884;BME280;8040;50.254;10.960;2023-03-18T06:27:40;97895.84;;;9.64;60.29
15884;BME280;8040;50.254;10.960;2023-03-18T06:30:09;97896.03;;;9.67;59.56
15884;BME280;8040;50.254;10.960;2023-03-18T06:32:34;97883.31;;;9.68;59.60
15884;BME280;8040;50.254;10.960;2023-03-18T06:35:00;97892.31;;;9.77;59.21
15884;BME280;8040;50.254;10.960;2023-03-18T06:37:26;97899.22;;;9.83;58.45
15884;BME280;8040;50.254;10.960;2023-03-18T06:39:52;97898.53;;;9.91;58.57
15884;BME280;8040;50.254;10.960;2023-03-18T06:42:17;97895.59;;;10.01;58.63
15884;BME280;8040;50.254;10.960;2023-03-18T06:44:43;97910.75;;;10.15;58.21
15884;BME280;8040;50.254;10.960;2023-03-18T06:47:15;97914.16;;;10.21;56.93
15884;BME280;8040;50.254;10.960;2023-03-18T06:49:40;97919.16;;;10.27;55.41
15884;BME280;8040;50.254;10.960;2023-03-18T06:52:06;97916.34;;;10.32;54.71
15884;BME280;8040;50.254;10.960;2023-03-18T06:54:31;97912.22;;;10.35;54.54
15884;BME280;8040;50.254;10.960;2023-03-18T06:56:58;97912.88;;;10.40;54.04
15884;BME280;8040;50.254;10.960;2023-03-18T06:59:24;97916.31;;;10.46;54.88
15884;BME280;8040;50.254;10.960;2023-03-18T07:01:49;97917.91;;;10.47;53.56
15884;BME280;8040;50.254;10.960;2023-03-18T07:04:14;97917.59;;;10.48;52.99
15884;BME280;8040;50.254;10.960;2023-03-18T07:06:41;97923.03;;;10.48;52.19
15884;BME280;8040;50.254;10.960;2023-03-18T07:09:06;97928.50;;;10.57;52.69
15884;BME280;8040;50.254;10.960;2023-03-18T07:11:34;97933.56;;;10.72;52.07
15884;BME280;8040;50.254;10.960;2023-03-18T07:14:00;97930.22;;;10.75;51.21
15884;BME280;8040;50.254;10.960;2023-03-18T07:16:26;97938.94;;;10.85;52.15
15884;BME280;8040;50.254;10.960;2023-03-18T07:18:51;97940.25;;;10.88;51.56
15884;BME280;8040;50.254;10.960;2023-03-18T07:21:17;97943.22;;;11.00;51.34
15884;BME280;8040;50.254;10.960;2023-03-18T07:23:43;97943.56;;;11.07;51.07
15884;BME280;8040;50.254;10.960;2023-03-18T07:26:09;97940.56;;;11.17;51.41
15884;BME280;8040;50.254;10.960;2023-03-18T07:28:34;97944.66;;;11.28;51.99
15884;BME280;8040;50.254;10.960;2023-03-18T07:31:00;97950.44;;;11.35;51.30
15884;BME280;8040;50.254;10.960;2023-03-18T07:33:25;97952.03;;;11.36;50.44
15884;BME280;8040;50.254;10.960;2023-03-18T07:35:51;97955.31;;;11.46;50.91
15884;BME280;8040;50.254;10.960;2023-03-18T07:38:16;97958.97;;;11.50;50.35
15884;BME280;8040;50.254;10.960;2023-03-18T07:40:42;97963.50;;;11.55;50.45
15884;BME280;8040;50.254;10.960;2023-03-18T07:43:07;97958.03;;;11.46;48.87
15884;BME280;8040;50.254;10.960;2023-03-18T07:45:33;97960.72;;;11.46;49.36
15884;BME280;8040;50.254;10.960;2023-03-18T07:47:58;97960.56;;;11.43;49.13
15884;BME280;8040;50.254;10.960;2023-03-18T07:50:24;97968.06;;;11.46;49.14
15884;BME280;8040;50.254;10.960;2023-03-18T07:52:49;97975.16;;;11.55;49.93
15884;BME280;8040;50.254;10.960;2023-03-18T07:55:14;97973.16;;;11.61;49.21
15884;BME280;8040;50.254;10.960;2023-03-18T07:57:40;97968.66;;;11.65;49.28
15884;BME280;8040;50.254;10.960;2023-03-18T08:00:06;97964.09;;;11.74;49.17
15884;BME280;8040;50.254;10.960;2023-03-18T08:02:32;97969.56;;;11.82;49.61
15884;BME280;8040;50.254;10.960;2023-03-18T08:04:58;97977.06;;;11.85;49.34
15884;BME280;8040;50.254;10.960;2023-03-18T08:07:24;97975.22;;;11.94;49.29
15884;BME280;8040;50.254;10.960;2023-03-18T08:09:49;97975.22;;;12.03;49.05
15884;BME280;8040;50.254;10.960;2023-03-18T08:12:15;97982.44;;;12.07;48.82
15884;BME280;8040;50.254;10.960;2023-03-18T08:14:40;97989.16;;;12.10;48.84
15884;BME280;8040;50.254;10.960;2023-03-18T08:17:05;97982.09;;;12.09;48.69
15884;BME280;8040;50.254;10.960;2023-03-18T08:19:31;97981.66;;;12.15;48.85
15884;BME280;8040;50.254;10.960;2023-03-18T08:21:56;97982.00;;;12.22;48.42
15884;BME280;8040;50.254;10.960;2023-03-18T08:24:22;97977.38;;;12.23;48.59
15884;BME280;8040;50.254;10.960;2023-03-18T08:26:48;97978.63;;;12.17;48.25
15884;BME280;8040;50.254;10.960;2023-03-18T08:29:13;97976.66;;;12.09;48.21
15884;BME280;8040;50.254;10.960;2023-03-18T08:31:39;97977.78;;;12.08;48.21
15884;BME280;8040;50.254;10.960;2023-03-18T08:34:05;97983.91;;;12.13;48.50
15884;BME280;8040;50.254;10.960;2023-03-18T08:36:30;97978.13;;;12.15;49.03
15884;BME280;8040;50.254;10.960;2023-03-18T08:38:56;97991.56;;;12.20;48.61
15884;BME280;8040;50.254;10.960;2023-03-18T08:41:21;97978.28;;;12.18;48.44
15884;BME280;8040;50.254;10.960;2023-03-18T08:43:49;97974.13;;;12.21;48.34
15884;BME280;8040;50.254;10.960;2023-03-18T08:46:16;97976.38;;;12.19;48.24
15884;BME280;8040;50.254;10.960;2023-03-18T08:48:42;97973.69;;;12.27;48.40
15884;BME280;8040;50.254;10.960;2023-03-18T08:51:08;97978.16;;;12.23;48.54
15884;BME280;8040;50.254;10.960;2023-03-18T08:53:33;97978.66;;;12.25;48.46
15884;BME280;8040;50.254;10.960;2023-03-18T08:55:59;97980.22;;;12.18;48.26
15884;BME280;8040;50.254;10.960;2023-03-18T08:58:28;97972.72;;;12.32;48.74
15884;BME280;8040;50.254;10.960;2023-03-18T09:00:54;97978.03;;;12.37;48.88
15884;BME280;8040;50.254;10.960;2023-03-18T09:03:19;97974.69;;;12.40;48.53
15884;BME280;8040;50.254;10.960;2023-03-18T09:05:49;97975.94;;;12.42;48.79
15884;BME280;8040;50.254;10.960;2023-03-18T09:08:14;97978.66;;;12.42;48.68
15884;BME280;8040;50.254;10.960;2023-03-18T09:10:40;97977.09;;;12.50;48.74
15884;BME280;8040;50.254;10.960;2023-03-18T09:13:05;97974.53;;;12.53;48.68
15884;BME280;8040;50.254;10.960;2023-03-18T09:15:32;97972.63;;;12.54;48.81
15884;BME280;8040;50.254;10.960;2023-03-18T09:17:58;97980.47;;;12.72;48.99
15884;BME280;8040;50.254;10.960;2023-03-18T09:20:24;97980.47;;;12.81;48.71
15884;BME280;8040;50.254;10.960;2023-03-18T09:22:49;97987.50;;;12.90;48.73
15884;BME280;8040;50.254;10.960;2023-03-18T09:25:16;97985.47;;;13.04;48.54
15884;BME280;8040;50.254;10.960;2023-03-18T09:27:41;97979.84;;;13.18;48.06
15884;BME280;8040;50.254;10.960;2023-03-18T09:30:08;97974.38;;;13.35;48.23
15884;BME280;8040;50.254;10.960;2023-03-18T09:32:33;97979.31;;;13.50;47.73
15884;BME280;8040;50.254;10.960;2023-03-18T09:34:59;97966.78;;;13.57;47.66
15884;BME280;8040;50.254;10.960;2023-03-18T09:37:24;97967.84;;;13.73;47.82
15884;BME280;8040;50.254;10.960;2023-03-18T09:39:50;97975.47;;;13.88;47.22
15884;BME280;8040;50.254;10.960;2023-03-18T09:45:02;97962.84;;;13.84;46.76
15884;BME280;8040;50.254;10.960;2023-03-18T09:50:20;97965.13;;;13.73;47.24
15884;BME280;8040;50.254;10.960;2023-03-18T09:55:30;97956.03;;;13.61;47.32
15884;BME280;8040;50.254;10.960;2023-03-18T09:58:00;97961.69;;;13.56;47.80
15884;BME280;8040;50.254;10.960;2023-03-18T10:00:28;97964.19;;;13.61;47.80
15884;BME280;8040;50.254;10.960;2023-03-18T10:05:33;97974.47;;;13.64;48.01
15884;BME280;8040;50.254;10.960;2023-03-18T10:08:07;97969.00;;;13.72;48.36
15884;BME280;8040;50.254;10.960;2023-03-18T10:10:37;97973.59;;;13.80;48.08
15884;BME280;8040;50.254;10.960;2023-03-18T10:15:40;97972.72;;;13.97;47.90
15884;BME280;8040;50.254;10.960;2023-03-18T10:34:20;97970.72;;;14.23;47.34
15884;BME280;8040;50.254;10.960;2023-03-18T10:39:28;97964.09;;;14.32;47.70
15884;BME280;8040;50.254;10.960;2023-03-18T10:41:54;97965.78;;;14.45;48.22
15884;BME280;8040;50.254;10.960;2023-03-18T10:47:00;97966.34;;;14.51;47.43
15884;BME280;8040;50.254;10.960;2023-03-18T10:49:27;97960.91;;;14.51;47.45
15884;BME280;8040;50.254;10.960;2023-03-18T10:54:28;97963.19;;;14.69;47.27
15884;BME280;8040;50.254;10.960;2023-03-18T10:56:57;97955.06;;;14.81;47.15
15884;BME280;8040;50.254;10.960;2023-03-18T10:59:22;97950.00;;;14.92;46.80
15884;BME280;8040;50.254;10.960;2023-03-18T11:02:04;97940.00;;;14.96;46.52
15884;BME280;8040;50.254;10.960;2023-03-18T11:04:37;97945.50;;;15.08;46.30
15884;BME280;8040;50.254;10.960;2023-03-18T11:07:06;97942.34;;;15.18;46.24
15884;BME280;8040;50.254;10.960;2023-03-18T11:09:37;97944.56;;;15.24;46.16
15884;BME280;8040;50.254;10.960;2023-03-18T11:12:13;97937.94;;;15.25;45.86
15884;BME280;8040;50.254;10.960;2023-03-18T11:14:38;97945.13;;;15.30;45.61
15884;BME280;8040;50.254;10.960;2023-03-18T11:17:05;97941.06;;;15.36;45.63
15884;BME280;8040;50.254;10.960;2023-03-18T11:19:45;97944.88;;;15.43;45.98
15884;BME280;8040;50.254;10.960;2023-03-18T11:22:21;97936.56;;;15.52;45.69
15884;BME280;8040;50.254;10.960;2023-03-18T11:25:04;97937.59;;;15.59;45.46
15884;BME280;8040;50.254;10.960;2023-03-18T11:30:20;97941.03;;;15.68;45.25
15884;BME280;8040;50.254;10.960;2023-03-18T11:32:54;97936.94;;;15.74;45.25
15884;BME280;8040;50.254;10.960;2023-03-18T11:35:21;97931.50;;;15.86;45.21
15884;BME280;8040;50.254;10.960;2023-03-18T11:37:47;97923.84;;;16.03;46.04
15884;BME280;8040;50.254;10.960;2023-03-18T11:42:39;97922.13;;;16.35;46.71
15884;BME280;8040;50.254;10.960;2023-03-18T11:47:50;97923.72;;;16.60;45.25
15884;BME280;8040;50.254;10.960;2023-03-18T11:50:20;97924.22;;;16.77;45.83
15884;BME280;8040;50.254;10.960;2023-03-18T11:52:53;97912.16;;;16.78;44.22
15884;BME280;8040;50.254;10.960;2023-03-18T11:55:25;97907.59;;;16.70;43.56
15884;BME280;8040;50.254;10.960;2023-03-18T12:06:20;97899.19;;;16.91;43.29
15884;BME280;8040;50.254;10.960;2023-03-18T12:08:49;97904.31;;;16.92;43.69
15884;BME280;8040;50.254;10.960;2023-03-18T12:11:41;97899.03;;;16.99;43.89
15884;BME280;8040;50.254;10.960;2023-03-18T12:14:16;97889.22;;;16.98;43.10
15884;BME280;8040;50.254;10.960;2023-03-18T12:17:02;97891.56;;;16.84;42.77
15884;BME280;8040;50.254;10.960;2023-03-18T12:19:51;97882.06;;;16.66;43.25
15884;BME280;8040;50.254;10.960;2023-03-18T12:25:04;97889.63;;;16.85;43.43
15884;BME280;8040;50.254;10.960;2023-03-18T12:28:05;97886.97;;;16.88;43.53
15884;BME280;8040;50.254;10.960;2023-03-18T12:33:18;97882.25;;;17.01;42.90
15884;BME280;8040;50.254;10.960;2023-03-18T12:35:51;97867.19;;;17.22;44.58
15884;BME280;8040;50.254;10.960;2023-03-18T12:45:37;97869.00;;;17.46;42.67
15884;BME280;8040;50.254;10.960;2023-03-18T12:48:17;97865.81;;;17.44;42.36
15884;BME280;8040;50.254;10.960;2023-03-18T12:50:46;97865.28;;;17.54;43.30
15884;BME280;8040;50.254;10.960;2023-03-18T12:53:20;97860.44;;;17.63;43.41
15884;BME280;8040;50.254;10.960;2023-03-18T12:55:48;97853.34;;;17.77;44.27
15884;BME280;8040;50.254;10.960;2023-03-18T12:58:21;97856.94;;;17.81;43.53
15884;BME280;8040;50.254;10.960;2023-03-18T13:00:58;97856.69;;;17.86;43.50
15884;BME280;8040;50.254;10.960;2023-03-18T13:03:32;97847.50;;;17.94;42.90
15884;BME280;8040;50.254;10.960;2023-03-18T13:06:02;97858.16;;;17.99;43.10
15884;BME280;8040;50.254;10.960;2023-03-18T13:11:08;97858.94;;;18.15;42.56
15884;BME280;8040;50.254;10.960;2023-03-18T13:13:35;97857.19;;;18.07;41.51
15884;BME280;8040;50.254;10.960;2023-03-18T13:16:02;97857.47;;;18.02;41.62
15884;BME280;8040;50.254;10.960;2023-03-18T13:21:24;97853.31;;;18.08;42.32
15884;BME280;8040;50.254;10.960;2023-03-18T13:24:00;97856.22;;;18.00;42.10
15884;BME280;8040;50.254;10.960;2023-03-18T13:32:06;97851.28;;;18.24;42.66
15884;BME280;8040;50.254;10.960;2023-03-18T13:42:54;97846.25;;;18.42;42.87
15884;BME280;8040;50.254;10.960;2023-03-18T13:47:54;97839.53;;;18.77;43.35
15884;BME280;8040;50.254;10.960;2023-03-18T13:52:45;97835.78;;;18.85;41.04
15884;BME280;8040;50.254;10.960;2023-03-18T13:55:25;97839.50;;;18.96;41.90
15884;BME280;8040;50.254;10.960;2023-03-18T14:03:00;97834.38;;;19.14;41.13
15884;BME280;8040;50.254;10.960;2023-03-18T14:05:39;97831.22;;;19.15;41.01
15884;BME280;8040;50.254;10.960;2023-03-18T14:13:36;97826.94;;;18.95;40.78
15884;BME280;8040;50.254;10.960;2023-03-18T14:16:07;97830.03;;;18.94;41.47
15884;BME280;8040;50.254;10.960;2023-03-18T14:18:32;97827.09;;;18.83;40.51
15884;BME280;8040;50.254;10.960;2023-03-18T14:21:00;97824.25;;;18.80;40.53
15884;BME280;8040;50.254;10.960;2023-03-18T14:23:43;97827.69;;;18.73;40.52
15884;BME280;8040;50.254;10.960;2023-03-18T14:26:17;97821.25;;;18.66;40.79
15884;BME280;8040;50.254;10.960;2023-03-18T14:28:54;97817.69;;;18.65;41.23
15884;BME280;8040;50.254;10.960;2023-03-18T14:39:07;97814.59;;;18.67;41.23
15884;BME280;8040;50.254;10.960;2023-03-18T14:41:36;97812.06;;;18.58;40.19
15884;BME280;8040;50.254;10.960;2023-03-18T14:46:36;97807.88;;;18.45;40.41
15884;BME280;8040;50.254;10.960;2023-03-18T14:51:49;97808.25;;;18.28;40.57
15884;BME280;8040;50.254;10.960;2023-03-18T14:54:18;97800.28;;;18.23;40.69
15884;BME280;8040;50.254;10.960;2023-03-18T14:56:50;97792.78;;;18.20;40.94
15884;BME280;8040;50.254;10.960;2023-03-18T14:59:16;97790.75;;;18.17;41.25
15884;BME280;8040;50.254;10.960;2023-03-18T15:01:46;97797.66;;;18.11;40.88
15884;BME280;8040;50.254;10.960;2023-03-18T15:04:20;97788.31;;;18.12;41.29
15884;BME280;8040;50.254;10.960;2023-03-18T15:06:46;97788.59;;;18.07;41.16
15884;BME280;8040;50.254;10.960;2023-03-18T15:09:20;97797.88;;;18.03;41.04
15884;BME280;8040;50.254;10.960;2023-03-18T15:11:48;97790.72;;;17.98;41.02